createdAt,value
2022-08-05T00:00:23.752Z,3.33
2022-08-05T00:02:14.498Z,3.20
2022-08-05T00:03:49.754Z,3.43
2022-08-05T00:06:02.844Z,3.20
2022-08-05T00:07:21.715Z,3.63
2022-08-05T00:09:00.990Z,3.40
2022-08-05T00:10:33.466Z,3.00
2022-08-05T00:12:06.036Z,3.63
2022-08-05T00:13:45.712Z,3.30
2022-08-05T00:15:58.258Z,3.63
2022-08-05T00:17:19.315Z,3.37
2022-08-05T00:18:51.813Z,3.60
2022-08-05T00:20:28.976Z,3.60
2022-08-05T00:22:02.531Z,3.17
2022-08-05T00:23:46.060Z,3.80
2022-08-05T00:25:25.393Z,3.90
2022-08-05T00:26:57.590Z,3.90
2022-08-05T00:28:31.036Z,3.97
2022-08-05T00:30:11.531Z,3.60
2022-08-05T00:32:09.332Z,4.00
2022-08-05T00:34:54.017Z,4.00
2022-08-05T00:35:33.439Z,3.70
2022-08-05T00:37:12.028Z,4.07
2022-08-05T00:38:45.847Z,4.07
2022-08-05T00:40:27.299Z,4.00
2022-08-05T00:42:01.656Z,4.20
2022-08-05T00:43:41.642Z,4.23
2022-08-05T00:45:38.735Z,4.13
2022-08-05T00:47:16.395Z,4.13
2022-08-05T00:48:50.715Z,4.50
2022-08-05T00:50:25.285Z,4.07
2022-08-05T00:51:57.876Z,4.20
2022-08-05T00:53:59.959Z,4.07
2022-08-05T00:55:42.455Z,3.90
2022-08-05T00:57:15.974Z,4.47
2022-08-05T00:58:53.975Z,3.93
2022-08-05T01:00:29.935Z,3.50
2022-08-05T01:02:04.404Z,3.77
2022-08-05T01:03:38.740Z,4.10
2022-08-05T01:05:12.751Z,3.80
2022-08-05T01:06:48.951Z,4.03
2022-08-05T01:08:41.694Z,3.97
2022-08-05T01:10:20.765Z,3.90
2022-08-05T01:12:09.297Z,4.30
2022-08-05T01:14:08.856Z,4.07
2022-08-05T01:15:53.967Z,3.73
2022-08-05T01:17:39.876Z,4.03
2022-08-05T01:19:36.657Z,4.37
2022-08-05T01:22:06.700Z,3.90
2022-08-05T01:24:01.616Z,4.37
2022-08-05T01:26:38.080Z,4.87
2022-08-05T01:28:17.946Z,4.20
2022-08-05T01:29:57.121Z,3.70
2022-08-05T01:31:44.917Z,4.07
2022-08-05T01:33:25.401Z,3.90
2022-08-05T01:35:10.880Z,3.83
2022-08-05T01:36:51.144Z,3.70
2022-08-05T01:38:29.084Z,4.13
2022-08-05T01:40:03.559Z,4.23
2022-08-05T01:41:38.108Z,4.00
2022-08-05T01:43:22.418Z,3.70
2022-08-05T01:45:02.285Z,4.00
2022-08-05T01:46:39.172Z,4.23
2022-08-05T01:48:18.200Z,4.10
2022-08-05T01:50:02.160Z,4.17
2022-08-05T01:51:39.313Z,4.27
2022-08-05T01:53:16.894Z,3.83
2022-08-05T01:55:13.415Z,4.93
2022-08-05T01:58:11.542Z,4.80
2022-08-05T01:58:45.033Z,3.80
2022-08-05T02:00:18.805Z,4.20
2022-08-05T02:01:56.207Z,3.73
2022-08-05T02:03:39.006Z,4.13
2022-08-05T02:05:15.527Z,3.90
2022-08-05T02:06:49.183Z,3.67
2022-08-05T02:08:29.650Z,3.67
2022-08-05T02:10:05.657Z,3.87
2022-08-05T02:12:10.965Z,3.93
2022-08-05T02:14:00.061Z,3.70
2022-08-05T02:15:39.208Z,3.70
2022-08-05T02:18:28.726Z,3.83
2022-08-05T02:19:27.712Z,3.70
2022-08-05T02:21:25.322Z,4.60
2022-08-05T02:23:05.639Z,3.93
2022-08-05T02:24:48.067Z,3.60
2022-08-05T02:26:41.126Z,3.60
2022-08-05T02:28:38.111Z,3.87
2022-08-05T02:30:12.691Z,4.03
2022-08-05T02:31:48.424Z,3.33
2022-08-05T02:33:38.342Z,3.67
2022-08-05T02:35:19.058Z,3.43
2022-08-05T02:37:04.552Z,3.47
2022-08-05T02:38:39.147Z,3.40
2022-08-05T02:40:13.182Z,3.97
2022-08-05T02:42:00.429Z,3.33
2022-08-05T02:43:34.454Z,3.27
2022-08-05T02:45:10.188Z,3.40
2022-08-05T02:46:53.835Z,3.37
2022-08-05T02:48:34.439Z,3.73
2022-08-05T02:50:08.414Z,3.60
2022-08-05T02:52:03.370Z,3.47
2022-08-05T02:53:40.414Z,3.93
2022-08-05T02:55:14.381Z,3.43
2022-08-05T02:58:09.192Z,3.80
2022-08-05T02:59:06.006Z,3.23
2022-08-05T03:00:40.236Z,3.57
2022-08-05T03:02:27.539Z,3.37
2022-08-05T03:04:11.756Z,3.80
2022-08-05T03:06:54.786Z,3.53
2022-08-05T03:08:04.501Z,3.47
2022-08-05T03:09:38.429Z,3.03
2022-08-05T03:11:56.690Z,3.57
2022-08-05T03:13:18.247Z,3.43
2022-08-05T03:14:50.377Z,3.70
2022-08-05T03:16:22.714Z,3.13
2022-08-05T03:17:57.485Z,3.53
2022-08-05T03:19:34.054Z,3.47
2022-08-05T03:21:07.389Z,3.30
2022-08-05T03:22:44.169Z,3.60
2022-08-05T03:24:26.894Z,3.50
2022-08-05T03:26:31.918Z,2.90
2022-08-05T03:28:00.161Z,3.43
2022-08-05T03:29:45.854Z,3.10
2022-08-05T03:31:56.476Z,3.00
2022-08-05T03:33:18.948Z,3.27
2022-08-05T03:34:53.587Z,2.90
2022-08-05T03:36:30.075Z,3.27
2022-08-05T03:38:03.265Z,3.03
2022-08-05T03:39:57.759Z,3.60
2022-08-05T03:41:33.115Z,3.50
2022-08-05T03:43:59.149Z,3.20
2022-08-05T03:45:21.575Z,3.13
2022-08-05T03:46:55.064Z,3.17
2022-08-05T03:48:29.366Z,2.97
2022-08-05T03:50:01.808Z,3.03
2022-08-05T03:52:39.291Z,3.47
2022-08-05T03:54:59.318Z,2.83
2022-08-05T03:56:26.956Z,3.10
2022-08-05T03:58:11.144Z,2.90
2022-08-05T03:59:55.903Z,2.88
2022-08-05T04:01:32.522Z,3.15
2022-08-05T04:03:26.559Z,3.40
2022-08-05T04:05:03.260Z,2.72
2022-08-05T04:06:35.860Z,2.78
2022-08-05T04:08:29.647Z,2.97
2022-08-05T04:10:04.150Z,3.38
2022-08-05T04:11:47.395Z,2.72
2022-08-05T04:13:23.931Z,3.67
2022-08-05T04:14:57.743Z,2.92
2022-08-05T04:16:35.397Z,2.83
2022-08-05T04:18:09.810Z,3.40
2022-08-05T04:19:47.107Z,3.03
2022-08-05T04:22:09.882Z,3.13
2022-08-05T04:23:19.354Z,3.00
2022-08-05T04:25:12.957Z,3.08
2022-08-05T04:26:47.428Z,3.17
2022-08-05T04:28:21.022Z,3.25
2022-08-05T04:30:04.458Z,3.13
2022-08-05T04:31:38.696Z,3.22
2022-08-05T04:33:12.155Z,3.13
2022-08-05T04:34:44.281Z,3.47
2022-08-05T04:36:46.569Z,3.50
2022-08-05T04:38:10.162Z,3.60
2022-08-05T04:39:52.936Z,3.30
2022-08-05T04:41:34.049Z,3.58
2022-08-05T04:43:11.012Z,3.30
2022-08-05T04:44:48.760Z,3.72
2022-08-05T04:46:27.988Z,3.72
2022-08-05T04:48:18.676Z,3.60
2022-08-05T04:50:01.793Z,3.95
2022-08-05T04:51:38.829Z,4.13
2022-08-05T04:53:13.320Z,3.83
2022-08-05T04:54:46.198Z,3.80
2022-08-05T04:56:34.524Z,4.18
2022-08-05T04:58:13.253Z,3.90
2022-08-05T04:59:48.127Z,4.13
2022-08-05T05:02:05.564Z,4.50
2022-08-05T05:03:13.026Z,4.50
2022-08-05T05:04:51.417Z,4.22
2022-08-05T05:06:36.044Z,4.55
2022-08-05T05:08:30.262Z,4.80
2022-08-05T05:10:06.304Z,5.25
2022-08-05T05:11:41.623Z,5.00
2022-08-05T05:13:25.176Z,5.07
2022-08-05T05:14:57.292Z,4.55
2022-08-05T05:16:30.400Z,5.50
2022-08-05T05:18:03.632Z,5.13
2022-08-05T05:19:36.968Z,5.22
2022-08-05T05:21:16.522Z,5.18
2022-08-05T05:22:49.199Z,5.57
2022-08-05T05:24:21.753Z,5.55
2022-08-05T05:25:53.930Z,5.13
2022-08-05T05:27:44.166Z,5.50
2022-08-05T05:29:18.099Z,5.88
2022-08-05T05:30:51.764Z,5.75
2022-08-05T05:32:24.513Z,5.70
2022-08-05T05:34:02.390Z,5.85
2022-08-05T05:35:39.556Z,4.93
2022-08-05T05:37:15.195Z,5.90
2022-08-05T05:38:47.924Z,5.93
2022-08-05T05:40:22.978Z,5.78
2022-08-05T05:41:58.299Z,5.90
2022-08-05T05:43:57.662Z,5.38
2022-08-05T05:45:24.713Z,5.65
2022-08-05T05:46:57.877Z,6.50
2022-08-05T05:48:30.453Z,5.50
2022-08-05T05:50:04.687Z,5.20
2022-08-05T05:51:50.006Z,5.82
2022-08-05T05:53:23.056Z,5.40
2022-08-05T05:54:55.242Z,5.28
2022-08-05T05:56:32.528Z,5.35
2022-08-05T05:58:06.241Z,5.10
2022-08-05T05:59:40.359Z,5.82
2022-08-05T06:01:15.348Z,5.72
2022-08-05T06:02:47.992Z,5.43
2022-08-05T06:04:20.203Z,5.93
2022-08-05T06:05:55.677Z,5.60
2022-08-05T06:07:42.119Z,5.40
2022-08-05T06:09:25.783Z,5.57
2022-08-05T06:11:13.555Z,6.20
2022-08-05T06:12:45.745Z,5.53
2022-08-05T06:14:18.047Z,5.57
2022-08-05T06:16:28.596Z,5.63
2022-08-05T06:17:52.402Z,5.97
2022-08-05T06:19:34.658Z,5.63
2022-08-05T06:21:08.123Z,5.43
2022-08-05T06:22:50.901Z,5.63
2022-08-05T06:24:27.299Z,6.10
2022-08-05T06:26:13.422Z,5.68
2022-08-05T06:28:11.918Z,5.40
2022-08-05T06:29:49.520Z,5.50
2022-08-05T06:31:30.473Z,6.00
2022-08-05T06:33:04.386Z,6.40
2022-08-05T06:34:36.561Z,5.88
2022-08-05T06:36:10.408Z,6.07
2022-08-05T06:37:58.144Z,5.50
2022-08-05T06:39:31.370Z,5.45
2022-08-05T06:41:07.814Z,5.60
2022-08-05T06:42:40.646Z,5.57
2022-08-05T06:44:12.800Z,5.22
2022-08-05T06:46:06.707Z,5.88
2022-08-05T06:48:36.459Z,5.75
2022-08-05T06:50:00.738Z,5.63
2022-08-05T06:51:30.150Z,5.18
2022-08-05T06:53:04.056Z,5.35
2022-08-05T06:54:43.998Z,5.97
2022-08-05T06:56:26.492Z,5.97
2022-08-05T06:58:19.672Z,5.82
2022-08-05T06:59:57.883Z,4.97
2022-08-05T07:01:32.313Z,5.28
2022-08-05T07:03:05.132Z,4.70
2022-08-05T07:04:41.852Z,5.38
2022-08-05T07:06:15.298Z,5.55
2022-08-05T07:07:49.147Z,5.00
2022-08-05T07:09:21.526Z,5.78
2022-08-05T07:10:57.207Z,4.80
2022-08-05T07:12:49.154Z,5.30
2022-08-05T07:14:41.173Z,5.85
2022-08-05T07:18:00.302Z,5.05
2022-08-05T07:18:29.287Z,6.07
2022-08-05T07:20:33.797Z,5.00
2022-08-05T07:22:00.690Z,4.63
2022-08-05T07:23:34.431Z,5.50
2022-08-05T07:25:53.955Z,4.50
2022-08-05T07:27:05.458Z,4.25
2022-08-05T07:28:41.164Z,5.03
2022-08-05T07:30:22.858Z,4.40
2022-08-05T07:31:57.735Z,4.80
2022-08-05T07:33:36.878Z,4.82
2022-08-05T07:36:04.849Z,4.95
2022-08-05T07:37:04.828Z,4.70
2022-08-05T07:38:43.340Z,4.22
2022-08-05T07:40:31.662Z,3.97
2022-08-05T07:42:13.933Z,4.35
2022-08-05T07:43:47.702Z,4.68
2022-08-05T07:45:56.265Z,4.22
2022-08-05T07:47:20.972Z,4.07
2022-08-05T07:49:05.433Z,4.13
2022-08-05T07:50:39.055Z,3.25
2022-08-05T07:52:11.296Z,3.90
2022-08-05T07:53:50.341Z,4.35
2022-08-05T07:56:05.669Z,4.50
2022-08-05T07:57:41.818Z,4.57
2022-08-05T07:59:08.690Z,3.95
2022-08-05T08:00:41.114Z,3.78
2022-08-05T08:02:16.513Z,3.60
2022-08-05T08:03:51.318Z,4.68
2022-08-05T08:05:24.020Z,4.03
2022-08-05T08:07:00.888Z,3.55
2022-08-05T08:08:37.843Z,4.03
2022-08-05T08:10:10.283Z,6.30
2022-08-05T08:11:48.239Z,6.40
2022-08-05T08:13:31.697Z,6.38
2022-08-05T08:15:16.120Z,4.53
2022-08-05T08:16:51.055Z,13.88
2022-08-05T08:18:25.547Z,7.82
2022-08-05T08:20:21.697Z,3.70
2022-08-05T08:21:51.185Z,4.72
2022-08-05T08:24:01.161Z,4.93
2022-08-05T08:25:17.800Z,4.80
2022-08-05T08:26:50.845Z,3.25
2022-08-05T08:28:36.427Z,4.80
2022-08-05T08:30:29.433Z,4.90
2022-08-05T08:32:04.367Z,5.57
2022-08-05T08:33:38.359Z,5.53
2022-08-05T08:35:13.544Z,4.68
2022-08-05T08:36:52.384Z,3.83
2022-08-05T08:38:36.044Z,4.30
2022-08-05T08:40:10.992Z,3.78
2022-08-05T08:41:51.783Z,4.00
2022-08-05T08:45:18.466Z,3.70
2022-08-05T08:45:29.695Z,3.55
2022-08-05T08:47:21.811Z,4.18
2022-08-05T08:50:05.915Z,4.10
2022-08-05T08:51:23.114Z,6.60
2022-08-05T08:52:59.608Z,5.70
2022-08-05T08:54:36.510Z,3.35
2022-08-05T08:56:09.315Z,3.50
2022-08-05T08:57:58.148Z,3.70
2022-08-05T08:59:33.534Z,3.28
2022-08-05T09:01:11.064Z,4.13
2022-08-05T09:02:51.044Z,3.10
2022-08-05T09:04:23.901Z,3.10
2022-08-05T09:06:09.220Z,4.00
2022-08-05T09:07:58.104Z,3.50
2022-08-05T09:09:34.727Z,3.67
2022-08-05T09:11:12.234Z,3.67
2022-08-05T09:12:50.847Z,3.30
2022-08-05T09:14:57.812Z,3.83
2022-08-05T09:16:18.694Z,3.20
2022-08-05T09:17:53.049Z,3.30
2022-08-05T09:19:28.049Z,3.97
2022-08-05T09:21:11.426Z,3.33
2022-08-05T09:23:18.887Z,3.75
2022-08-05T09:25:24.077Z,3.88
2022-08-05T09:26:58.831Z,3.70
2022-08-05T09:28:34.025Z,3.13
2022-08-05T09:30:07.940Z,3.40
2022-08-05T09:32:51.841Z,3.63
2022-08-05T09:34:13.079Z,3.30
2022-08-05T09:36:16.169Z,2.63
2022-08-05T09:38:12.918Z,3.75
2022-08-05T09:39:52.271Z,3.53
2022-08-05T09:41:33.241Z,3.30
2022-08-05T09:43:44.005Z,3.63
2022-08-05T09:46:07.106Z,3.67
2022-08-05T09:47:49.063Z,3.75
2022-08-05T09:50:00.823Z,3.70
2022-08-05T09:51:36.509Z,3.75
2022-08-05T09:53:12.068Z,3.78
2022-08-05T09:55:56.794Z,3.75
2022-08-05T09:57:02.090Z,3.67
2022-08-05T09:58:34.242Z,3.50
2022-08-05T10:00:07.873Z,3.97
2022-08-05T10:01:46.510Z,3.88
2022-08-05T10:03:19.166Z,3.70
2022-08-05T10:04:53.624Z,3.33
2022-08-05T10:06:28.054Z,3.45
2022-08-05T10:08:35.030Z,3.38
2022-08-05T10:10:14.197Z,4.25
2022-08-05T10:11:47.970Z,3.78
2022-08-05T10:13:31.574Z,3.55
2022-08-05T10:15:23.975Z,3.63
2022-08-05T10:17:37.967Z,3.67
2022-08-05T10:19:10.074Z,3.50
2022-08-05T10:20:47.975Z,3.42
2022-08-05T10:22:29.892Z,3.22
2022-08-05T10:24:07.572Z,4.00
2022-08-05T10:25:43.247Z,3.25
2022-08-05T10:27:17.131Z,3.65
2022-08-05T10:28:58.452Z,3.55
2022-08-05T10:31:20.783Z,3.80
2022-08-05T10:32:51.963Z,3.50
2022-08-05T10:34:16.880Z,3.33
2022-08-05T10:35:59.803Z,3.60
2022-08-05T10:37:43.915Z,4.20
2022-08-05T10:40:03.611Z,3.47
2022-08-05T10:41:46.419Z,3.50
2022-08-05T10:43:41.367Z,3.50
2022-08-05T10:45:23.424Z,3.60
2022-08-05T10:47:26.540Z,3.97
2022-08-05T10:49:10.484Z,3.72
2022-08-05T10:51:03.428Z,3.50
2022-08-05T10:52:58.700Z,3.58
2022-08-05T10:54:56.144Z,3.85
2022-08-05T10:56:53.112Z,3.72
2022-08-05T10:58:47.886Z,3.78
2022-08-05T11:00:23.299Z,3.47
2022-08-05T11:02:37.705Z,3.42
2022-08-05T11:04:17.388Z,4.10
2022-08-05T11:06:15.266Z,5.10
2022-08-05T11:08:01.742Z,5.60
2022-08-05T11:09:46.299Z,4.60
2022-08-05T11:11:44.288Z,3.75
2022-08-05T11:13:57.878Z,4.22
2022-08-05T11:16:00.156Z,3.95
2022-08-05T11:17:59.134Z,3.58
2022-08-05T11:20:09.985Z,3.80
2022-08-05T11:21:49.007Z,4.80
2022-08-05T11:24:04.648Z,3.80
2022-08-05T11:26:05.212Z,4.30
2022-08-05T11:27:45.775Z,4.20
2022-08-05T11:29:42.159Z,4.07
2022-08-05T11:31:19.520Z,4.70
2022-08-05T11:33:43.886Z,4.18
2022-08-05T11:36:07.752Z,4.10
2022-08-05T11:38:30.912Z,4.40
2022-08-05T11:40:00.441Z,4.60
2022-08-05T11:42:00.681Z,4.03
2022-08-05T11:44:04.622Z,3.88
2022-08-05T11:46:30.593Z,4.00
2022-08-05T11:47:49.265Z,4.40
2022-08-05T11:49:20.827Z,4.93
2022-08-05T11:50:54.163Z,5.13
2022-08-05T11:52:31.029Z,4.50
2022-08-05T11:54:03.923Z,4.38
2022-08-05T11:55:36.769Z,5.50
2022-08-05T11:57:24.322Z,4.80
2022-08-05T11:58:58.488Z,4.70
2022-08-05T12:00:31.885Z,4.20
2022-08-05T12:02:24.248Z,4.20
2022-08-05T12:04:00.332Z,4.18
2022-08-05T12:05:39.730Z,4.00
2022-08-05T12:07:16.222Z,3.97
2022-08-05T12:08:52.955Z,4.30
2022-08-05T12:10:38.603Z,4.45
2022-08-05T12:12:27.818Z,4.00
2022-08-05T12:14:04.971Z,4.00
2022-08-05T12:15:38.308Z,4.00
2022-08-05T12:17:42.229Z,3.83
2022-08-05T12:19:11.254Z,3.83
2022-08-05T12:21:16.428Z,3.95
2022-08-05T12:22:51.857Z,4.00
2022-08-05T12:24:24.602Z,3.60
2022-08-05T12:25:57.305Z,3.40
2022-08-05T12:27:33.474Z,3.60
2022-08-05T12:29:09.344Z,3.88
2022-08-05T12:30:45.878Z,4.55
2022-08-05T12:32:18.479Z,4.20
2022-08-05T12:33:54.964Z,4.35
2022-08-05T12:35:39.377Z,3.90
2022-08-05T12:37:17.691Z,4.00
2022-08-05T12:38:55.059Z,3.65
2022-08-05T12:40:29.703Z,3.78
2022-08-05T12:42:03.082Z,3.50
2022-08-05T12:43:35.924Z,4.35
2022-08-05T12:45:11.905Z,4.47
2022-08-05T12:46:54.412Z,4.00
2022-08-05T12:48:32.564Z,3.85
2022-08-05T12:50:19.809Z,4.22
2022-08-05T12:52:12.323Z,4.65
2022-08-05T12:53:47.343Z,4.72
2022-08-05T12:55:26.473Z,4.38
2022-08-05T12:57:03.763Z,4.72
2022-08-05T12:58:48.441Z,4.40
2022-08-05T13:02:02.135Z,4.10
2022-08-05T13:02:30.460Z,4.28
2022-08-05T13:04:07.566Z,4.60
2022-08-05T13:05:42.065Z,4.07
2022-08-05T13:07:23.804Z,4.22
2022-08-05T13:09:13.471Z,3.95
2022-08-05T13:10:46.468Z,4.03
2022-08-05T13:12:28.417Z,4.03
2022-08-05T13:14:04.539Z,4.38
2022-08-05T13:15:50.951Z,4.13
2022-08-05T13:17:31.837Z,4.25
2022-08-05T13:19:14.687Z,3.92
2022-08-05T13:20:50.091Z,4.10
2022-08-05T13:22:29.366Z,4.20
2022-08-05T13:24:02.174Z,3.80
2022-08-05T13:25:52.412Z,4.57
2022-08-05T13:27:42.136Z,4.03
2022-08-05T13:29:19.039Z,3.50
2022-08-05T13:30:53.494Z,3.95
2022-08-05T13:32:29.315Z,4.20
2022-08-05T13:34:24.756Z,4.43
2022-08-05T13:35:57.957Z,3.53
2022-08-05T13:37:35.125Z,3.80
2022-08-05T13:39:24.178Z,3.67
2022-08-05T13:41:00.716Z,3.80
2022-08-05T13:42:33.033Z,3.60
2022-08-05T13:44:05.595Z,4.20
2022-08-05T13:45:43.073Z,3.70
2022-08-05T13:47:35.661Z,3.95
2022-08-05T13:49:10.398Z,4.47
2022-08-05T13:50:44.344Z,3.92
2022-08-05T13:52:29.048Z,4.13
2022-08-05T13:54:01.798Z,3.65
2022-08-05T13:55:42.004Z,4.30
2022-08-05T13:57:25.075Z,4.15
2022-08-05T13:58:57.888Z,4.60
2022-08-05T14:00:38.293Z,4.60
2022-08-05T14:02:19.724Z,4.32
2022-08-05T14:04:11.331Z,4.10
2022-08-05T14:06:04.760Z,4.10
2022-08-05T14:08:01.222Z,4.07
2022-08-05T14:09:34.929Z,3.67
2022-08-05T14:11:20.460Z,4.07
2022-08-05T14:12:54.603Z,3.83
2022-08-05T14:14:32.307Z,4.00
2022-08-05T14:16:11.303Z,3.92
2022-08-05T14:17:44.149Z,4.00
2022-08-05T14:19:20.189Z,3.50
2022-08-05T14:20:55.397Z,6.78
2022-08-05T14:22:30.463Z,9.05
2022-08-05T14:24:08.942Z,5.50
2022-08-05T14:25:45.025Z,4.10
2022-08-05T14:27:18.591Z,4.20
2022-08-05T14:28:52.291Z,3.67
2022-08-05T14:30:26.419Z,4.28
2022-08-05T14:32:12.268Z,4.22
2022-08-05T14:33:59.936Z,4.00
2022-08-05T14:35:50.517Z,4.03
2022-08-05T14:37:47.412Z,4.05
2022-08-05T14:39:23.149Z,3.95
2022-08-05T14:40:56.827Z,3.88
2022-08-05T14:42:28.967Z,3.80
2022-08-05T14:44:09.789Z,3.75
2022-08-05T14:45:53.320Z,3.88
2022-08-05T14:48:03.501Z,4.20
2022-08-05T14:49:18.142Z,4.07
2022-08-05T14:50:50.257Z,3.97
2022-08-05T14:52:50.126Z,3.63
2022-08-05T14:54:30.227Z,3.90
2022-08-05T14:56:06.083Z,4.32
2022-08-05T14:57:56.313Z,4.10
2022-08-05T14:59:35.597Z,3.83
2022-08-05T15:01:15.613Z,4.10
2022-08-05T15:02:48.670Z,3.92
2022-08-05T15:04:23.755Z,3.65
2022-08-05T15:06:07.720Z,3.53
2022-08-05T15:08:11.269Z,3.65
2022-08-05T15:09:51.597Z,3.83
2022-08-05T15:11:51.372Z,3.88
2022-08-05T15:13:19.196Z,3.88
2022-08-05T15:15:00.835Z,3.65
2022-08-05T15:16:33.877Z,4.00
2022-08-05T15:18:07.852Z,4.00
2022-08-05T15:19:39.988Z,4.07
2022-08-05T15:21:21.460Z,4.03
2022-08-05T15:22:54.895Z,4.70
2022-08-05T15:24:28.161Z,3.97
2022-08-05T15:26:03.232Z,4.07
2022-08-05T15:27:36.222Z,4.03
2022-08-05T15:29:08.494Z,4.30
2022-08-05T15:30:41.484Z,3.92
2022-08-05T15:32:16.415Z,3.97
2022-08-05T15:34:06.209Z,3.70
2022-08-05T15:35:45.215Z,3.83
2022-08-05T15:37:22.001Z,4.10
2022-08-05T15:41:03.338Z,4.68
2022-08-05T15:41:21.210Z,4.22
2022-08-05T15:43:02.541Z,4.50
2022-08-05T15:44:45.358Z,4.10
2022-08-05T15:46:20.638Z,4.18
2022-08-05T15:47:57.675Z,4.22
2022-08-05T15:49:48.297Z,4.40
2022-08-05T15:52:12.679Z,4.15
2022-08-05T15:53:19.721Z,4.55
2022-08-05T15:54:53.620Z,4.90
2022-08-05T15:56:28.912Z,4.25
2022-08-05T15:58:03.112Z,4.45
2022-08-05T15:59:38.218Z,4.63
2022-08-05T16:01:17.352Z,4.72
2022-08-05T16:02:51.052Z,4.40
2022-08-05T16:04:25.268Z,4.57
2022-08-05T16:05:58.108Z,4.60
2022-08-05T16:07:30.478Z,4.63
2022-08-05T16:09:03.484Z,4.25
2022-08-05T16:10:35.692Z,4.30
2022-08-05T16:12:09.065Z,4.50
2022-08-05T16:13:41.726Z,5.05
2022-08-05T16:15:18.587Z,4.65
2022-08-05T16:16:51.597Z,4.85
2022-08-05T16:18:28.972Z,6.20
2022-08-05T16:20:04.312Z,6.25
2022-08-05T16:22:01.133Z,8.60
2022-08-05T16:23:53.809Z,12.65
2022-08-05T16:25:34.196Z,9.95
2022-08-05T16:27:08.797Z,8.48
2022-08-05T16:28:41.300Z,6.13
2022-08-05T16:30:25.867Z,5.20
2022-08-05T16:31:59.759Z,4.72
2022-08-05T16:33:41.793Z,4.45
2022-08-05T16:35:14.192Z,4.10
2022-08-05T16:36:48.462Z,4.93
2022-08-05T16:38:25.294Z,4.20
2022-08-05T16:40:06.497Z,4.30
2022-08-05T16:42:15.146Z,4.88
2022-08-05T16:43:35.819Z,5.55
2022-08-05T16:46:04.549Z,5.80
2022-08-05T16:47:03.746Z,5.82
2022-08-05T16:48:38.564Z,5.25
2022-08-05T16:50:12.892Z,7.28
2022-08-05T16:51:50.275Z,5.90
2022-08-05T16:54:02.076Z,4.38
2022-08-05T16:55:16.725Z,4.80
2022-08-05T16:56:52.386Z,4.72
2022-08-05T16:58:24.901Z,4.65
2022-08-05T17:00:02.990Z,5.28
2022-08-05T17:01:53.816Z,4.55
2022-08-05T17:03:28.220Z,4.60
2022-08-05T17:05:03.568Z,4.50
2022-08-05T17:06:35.814Z,5.10
2022-08-05T17:08:14.435Z,7.13
2022-08-05T17:10:07.349Z,6.57
2022-08-05T17:11:48.620Z,5.40
2022-08-05T17:13:37.726Z,5.32
2022-08-05T17:15:15.417Z,5.72
2022-08-05T17:16:53.874Z,6.38
2022-08-05T17:18:26.460Z,5.20
2022-08-05T17:20:07.782Z,5.25
2022-08-05T17:21:51.573Z,5.15
2022-08-05T17:24:05.510Z,5.38
2022-08-05T17:25:22.453Z,5.75
2022-08-05T17:27:07.053Z,5.75
2022-08-05T17:28:39.236Z,5.07
2022-08-05T17:30:19.050Z,5.82
2022-08-05T17:32:00.877Z,5.95
2022-08-05T17:33:39.103Z,6.15
2022-08-05T17:35:21.347Z,6.30
2022-08-05T17:36:53.500Z,6.68
2022-08-05T17:38:25.923Z,8.02
2022-08-05T17:40:00.022Z,8.43
2022-08-05T17:42:20.051Z,9.60
2022-08-05T17:43:47.249Z,10.07
2022-08-05T17:45:20.891Z,8.25
2022-08-05T17:46:53.605Z,10.88
2022-08-05T17:48:26.187Z,9.65
2022-08-05T17:50:04.077Z,9.52
2022-08-05T17:51:40.181Z,7.55
2022-08-05T17:53:12.793Z,7.95
2022-08-05T17:54:46.879Z,7.00
2022-08-05T17:56:19.595Z,7.45
2022-08-05T17:57:55.060Z,6.85
2022-08-05T17:59:27.275Z,6.63
2022-08-05T18:01:00.831Z,6.28
2022-08-05T18:02:34.235Z,6.43
2022-08-05T18:04:06.842Z,5.95
2022-08-05T18:05:44.284Z,5.68
2022-08-05T18:07:25.705Z,5.60
2022-08-05T18:09:14.522Z,6.82
2022-08-05T18:10:47.113Z,6.63
2022-08-05T18:12:19.331Z,6.65
2022-08-05T18:13:56.531Z,6.80
2022-08-05T18:15:34.447Z,7.40
2022-08-05T18:17:59.600Z,6.95
2022-08-05T18:19:00.867Z,6.55
2022-08-05T18:20:33.238Z,6.72
2022-08-05T18:22:08.646Z,6.63
2022-08-05T18:23:47.022Z,6.82
2022-08-05T18:25:19.569Z,6.72
2022-08-05T18:26:54.936Z,7.85
2022-08-05T18:28:28.381Z,8.35
2022-08-05T18:30:00.849Z,8.07
2022-08-05T18:31:35.466Z,7.38
2022-08-05T18:33:08.656Z,6.57
2022-08-05T18:34:46.117Z,6.82
2022-08-05T18:36:19.260Z,5.82
2022-08-05T18:37:51.576Z,6.57
2022-08-05T18:40:29.840Z,7.05
2022-08-05T18:41:55.344Z,6.63
2022-08-05T18:43:16.410Z,6.38
2022-08-05T18:44:55.667Z,6.68
2022-08-05T18:46:29.129Z,5.72
2022-08-05T18:48:01.649Z,6.35
2022-08-05T18:49:57.846Z,6.43
2022-08-05T18:52:04.849Z,6.30
2022-08-05T18:53:42.937Z,6.68
2022-08-05T18:55:18.163Z,6.32
2022-08-05T18:56:52.158Z,6.47
2022-08-05T18:58:28.866Z,6.07
2022-08-05T19:00:11.620Z,6.97
2022-08-05T19:01:58.479Z,6.65
2022-08-05T19:03:53.003Z,7.03
2022-08-05T19:06:11.240Z,6.32
2022-08-05T19:07:16.015Z,6.22
2022-08-05T19:08:48.426Z,5.60
2022-08-05T19:10:26.474Z,5.85
2022-08-05T19:12:01.599Z,5.55
2022-08-05T19:13:35.955Z,6.80
2022-08-05T19:15:10.596Z,5.40
2022-08-05T19:17:02.844Z,6.25
2022-08-05T19:18:39.724Z,6.25
2022-08-05T19:20:15.054Z,6.30
2022-08-05T19:21:47.686Z,5.80
2022-08-05T19:24:05.456Z,5.88
2022-08-05T19:25:29.527Z,6.45
2022-08-05T19:27:03.990Z,7.22
2022-08-05T19:28:43.356Z,7.45
2022-08-05T19:30:16.842Z,9.40
2022-08-05T19:31:53.013Z,8.73
2022-08-05T19:33:35.696Z,6.70
2022-08-05T19:35:09.604Z,5.88
2022-08-05T19:36:42.573Z,6.15
2022-08-05T19:38:14.955Z,5.97
2022-08-05T19:39:50.988Z,5.80
2022-08-05T19:41:58.434Z,5.70
2022-08-05T19:43:31.310Z,4.82
2022-08-05T19:45:09.543Z,5.13
2022-08-05T19:46:47.263Z,4.90
2022-08-05T19:48:22.657Z,5.40
2022-08-05T19:49:57.337Z,5.53
2022-08-05T19:52:04.696Z,5.57
2022-08-05T19:54:04.105Z,5.18
2022-08-05T19:56:13.898Z,4.95
2022-08-05T19:57:09.560Z,5.45
2022-08-05T19:58:54.030Z,5.68
2022-08-05T20:00:27.220Z,5.22
2022-08-05T20:02:01.415Z,5.60
2022-08-05T20:03:38.892Z,5.63
2022-08-05T20:05:16.601Z,5.18
2022-08-05T20:06:57.268Z,5.53
2022-08-05T20:08:31.249Z,5.22
2022-08-05T20:10:13.521Z,5.70
2022-08-05T20:11:48.169Z,5.05
2022-08-05T20:13:54.499Z,5.10
2022-08-05T20:15:13.725Z,5.45
2022-08-05T20:16:47.050Z,5.10
2022-08-05T20:18:32.819Z,5.30
2022-08-05T20:20:09.512Z,5.10
2022-08-05T20:21:43.498Z,5.18
2022-08-05T20:23:16.976Z,5.05
2022-08-05T20:24:51.856Z,5.35
2022-08-05T20:26:26.576Z,5.82
2022-08-05T20:27:59.600Z,5.70
2022-08-05T20:29:33.691Z,6.40
2022-08-05T20:31:07.584Z,6.13
2022-08-05T20:32:45.157Z,5.30
2022-08-05T20:34:17.733Z,5.15
2022-08-05T20:35:49.936Z,5.15
2022-08-05T20:38:04.796Z,5.70
2022-08-05T20:39:16.487Z,5.63
2022-08-05T20:40:50.549Z,5.10
2022-08-05T20:42:22.949Z,4.80
2022-08-05T20:44:08.121Z,5.05
2022-08-05T20:45:57.137Z,5.65
2022-08-05T20:47:33.424Z,4.72
2022-08-05T20:49:06.261Z,4.90
2022-08-05T20:50:45.297Z,5.50
2022-08-05T20:52:19.176Z,4.95
2022-08-05T20:53:56.745Z,4.95
2022-08-05T20:55:56.310Z,4.57
2022-08-05T20:57:42.228Z,4.55
2022-08-05T20:59:19.155Z,4.25
2022-08-05T21:00:59.166Z,4.90
2022-08-05T21:02:37.413Z,4.72
2022-08-05T21:04:12.109Z,4.20
2022-08-05T21:05:53.637Z,4.75
2022-08-05T21:07:26.920Z,4.40
2022-08-05T21:09:19.478Z,5.35
2022-08-05T21:10:51.877Z,4.35
2022-08-05T21:12:26.707Z,4.30
2022-08-05T21:13:59.170Z,4.35
2022-08-05T21:15:34.059Z,4.82
2022-08-05T21:17:06.671Z,4.60
2022-08-05T21:18:38.931Z,4.50
2022-08-05T21:20:32.762Z,4.63
2022-08-05T21:22:06.155Z,4.38
2022-08-05T21:23:41.784Z,4.50
2022-08-05T21:25:13.960Z,4.28
2022-08-05T21:26:53.567Z,4.55
2022-08-05T21:28:30.989Z,4.50
2022-08-05T21:30:04.341Z,4.30
2022-08-05T21:31:41.372Z,4.68
2022-08-05T21:33:22.444Z,4.88
2022-08-05T21:35:17.288Z,4.10
2022-08-05T21:36:49.830Z,4.22
2022-08-05T21:38:22.322Z,3.78
2022-08-05T21:39:54.505Z,4.60
2022-08-05T21:41:32.949Z,4.43
2022-08-05T21:43:06.391Z,4.53
2022-08-05T21:44:40.740Z,4.60
2022-08-05T21:46:12.916Z,4.18
2022-08-05T21:47:56.774Z,3.95
2022-08-05T21:49:58.835Z,4.20
2022-08-05T21:52:16.411Z,4.30
2022-08-05T21:53:17.445Z,4.57
2022-08-05T21:54:55.202Z,4.50
2022-08-05T21:56:27.464Z,4.18
2022-08-05T21:57:59.633Z,4.20
2022-08-05T21:59:48.194Z,4.20
2022-08-05T22:01:24.823Z,4.28
2022-08-05T22:02:57.960Z,3.80
2022-08-05T22:04:30.143Z,4.00
2022-08-05T22:06:02.568Z,3.50
2022-08-05T22:07:40.452Z,3.72
2022-08-05T22:09:46.074Z,3.70
2022-08-05T22:11:19.192Z,4.35
2022-08-05T22:14:06.627Z,4.07
2022-08-05T22:14:59.501Z,4.32
2022-08-05T22:16:41.883Z,4.35
2022-08-05T22:18:25.693Z,4.50
2022-08-05T22:20:03.235Z,4.30
2022-08-05T22:21:43.675Z,4.10
2022-08-05T22:24:01.394Z,4.32
2022-08-05T22:26:09.721Z,4.53
2022-08-05T22:28:10.348Z,4.13
2022-08-05T22:29:39.746Z,4.18